Time;durP1;ratioP1;P1;durP2;ratioP2;P2;SDS_P1;SDS_P2;PMS_P1;PMS_P2;Temp;Humidity;BMP_temperature;BMP_pressure;BME280_temperature;BME280_humidity;BME280_pressure;Samples;Min_cycle;Max_cycle;Signal;HPM_P1;HPM_P2
2021/03/24 00:01:19;;;;;;;52.57;36.37;;;9.30;1.00;;;;;;5076874;28;20176;-87
2021/03/24 00:03:45;;;;;;;54.73;35.60;;;9.20;1.00;;;;;;5058926;28;20279;-88
2021/03/24 00:06:26;;;;;;;;;;;;;;;;;;;;;
2021/03/24 00:08:55;;;;;;;53.87;36.10;;;9.20;1.00;;;;;;5077083;28;20204;-86
2021/03/24 00:11:20;;;;;;;52.57;36.13;;;9.30;1.00;;;;;;5058667;28;20250;-86
2021/03/24 00:13:46;;;;;;;51.10;36.83;;;9.20;1.00;;;;;;5059524;28;20628;-87
2021/03/24 00:16:12;;;;;;;51.83;35.77;;;9.00;1.00;;;;;;5058736;28;20221;-86
2021/03/24 00:18:38;;;;;;;50.67;35.23;;;8.90;1.00;;;;;;5076529;28;20168;-85
2021/03/24 00:21:06;;;;;;;50.70;35.73;;;8.80;1.00;;;;;;5076545;28;20172;-85
2021/03/24 00:23:35;;;;;;;51.20;35.97;;;8.80;1.00;;;;;;5077145;28;20631;-84
2021/03/24 00:26:00;;;;;;;53.63;37.10;;;9.00;1.00;;;;;;5059213;28;20203;-87
2021/03/24 00:28:26;;;;;;;47.37;35.07;;;9.20;1.00;;;;;;5076897;28;20196;-87
2021/03/24 00:30:55;;;;;;;47.67;34.20;;;9.10;1.00;;;;;;5067797;28;20176;-86
2021/03/24 00:33:23;;;;;;;50.10;35.77;;;9.00;1.00;;;;;;5058819;28;20173;-88
2021/03/24 00:35:49;;;;;;;50.60;35.13;;;8.80;1.00;;;;;;5059084;28;20210;-82
2021/03/24 00:38:17;;;;;;;57.77;38.37;;;8.90;1.00;;;;;;5058654;28;20186;-85
2021/03/24 00:40:46;;;;;;;52.63;36.20;;;9.00;1.00;;;;;;5076170;28;20237;-83
2021/03/24 00:43:12;;;;;;;53.97;38.20;;;9.00;1.00;;;;;;5058621;28;20257;-84
2021/03/24 00:45:40;;;;;;;59.07;37.73;;;9.10;1.00;;;;;;5058910;28;20196;-84
2021/03/24 00:48:07;;;;;;;55.60;37.77;;;9.10;1.00;;;;;;5059143;28;20227;-87
2021/03/24 00:50:35;;;;;;;52.60;37.23;;;9.00;1.00;;;;;;5059095;28;20183;-85
2021/03/24 00:53:06;;;;;;;52.13;36.80;;;8.90;1.00;;;;;;5058753;28;20181;-87
2021/03/24 00:55:32;;;;;;;53.77;38.00;;;8.90;1.00;;;;;;5059058;28;20175;-87
2021/03/24 00:57:58;;;;;;;55.87;37.40;;;9.00;1.00;;;;;;5059261;28;20168;-88
2021/03/24 01:00:27;;;;;;;56.40;38.23;;;8.90;1.00;;;;;;5057829;28;20222;-82
2021/03/24 01:02:53;;;;;;;55.07;38.17;;;8.80;1.00;;;;;;5075973;28;20770;-80
2021/03/24 01:05:20;;;;;;;54.27;37.70;;;8.70;1.00;;;;;;5075717;28;20176;-87
2021/03/24 01:07:46;;;;;;;56.30;37.70;;;8.70;1.00;;;;;;5075750;28;20211;-88
2021/03/24 01:10:27;;;;;;;53.50;38.50;;;8.70;1.00;;;;;;5075165;28;20172;-85
2021/03/24 01:12:53;;;;;;;55.10;37.80;;;8.80;1.00;;;;;;5074890;28;20539;-86
2021/03/24 01:15:20;;;;;;;52.67;37.17;;;8.90;1.00;;;;;;5057385;28;20259;-87
2021/03/24 01:17:46;;;;;;;54.77;37.83;;;8.90;1.00;;;;;;5057537;28;20640;-85
2021/03/24 01:20:21;;;;;;;51.17;37.77;;;8.90;1.00;;;;;;5074974;28;20183;-89
2021/03/24 01:22:46;;;;;;;58.37;38.47;;;8.90;1.00;;;;;;5057389;28;20184;-84
2021/03/24 01:25:12;;;;;;;56.30;38.67;;;8.80;1.00;;;;;;5057069;28;20165;-84
2021/03/24 01:27:38;;;;;;;53.13;38.03;;;8.90;1.00;;;;;;5057113;28;20560;-85
2021/03/24 01:30:05;;;;;;;64.57;39.13;;;8.90;1.00;;;;;;5075089;28;20251;-86
2021/03/24 01:32:31;;;;;;;54.73;37.67;;;8.80;1.00;;;;;;5057628;28;20180;-87
2021/03/24 01:35:07;;;;;;;54.77;38.83;;;8.70;1.00;;;;;;5057103;28;20191;-87
2021/03/24 01:37:33;;;;;;;56.83;36.80;;;8.70;1.00;;;;;;5075063;28;20168;-86
2021/03/24 01:39:59;;;;;;;58.73;39.47;;;8.50;1.00;;;;;;5075046;28;20172;-86
2021/03/24 01:42:25;;;;;;;60.63;39.07;;;8.60;1.00;;;;;;5074655;28;20172;-86
2021/03/24 01:45:15;;;;;;;54.53;38.00;;;8.50;1.00;;;;;;5056747;28;20195;-87
2021/03/24 01:47:44;;;;;;;50.43;37.33;;;8.50;1.00;;;;;;5074862;28;20717;-84
2021/03/24 01:50:23;;;;;;;51.03;37.10;;;8.30;1.00;;;;;;5074544;28;20180;-86
2021/03/24 01:52:49;;;;;;;55.23;37.27;;;8.40;1.00;;;;;;5074523;28;20636;-87
2021/03/24 01:55:15;;;;;;;58.37;39.43;;;8.40;1.00;;;;;;5056774;28;20180;-86
2021/03/24 01:57:45;;;;;;;55.47;37.40;;;8.50;1.00;;;;;;5074488;28;20172;-82
2021/03/24 02:00:16;;;;;;;52.80;36.77;;;8.50;1.00;;;;;;5056818;28;20180;-81
2021/03/24 02:02:41;;;;;;;60.07;38.33;;;8.30;1.00;;;;;;5074302;28;20509;-85
2021/03/24 02:05:08;;;;;;;57.93;38.07;;;8.20;1.00;;;;;;5056564;28;20172;-85
2021/03/24 02:07:55;;;;;;;55.27;38.07;;;8.30;1.00;;;;;;5074186;28;20165;-84
2021/03/24 02:10:53;;;;;;;53.70;36.40;;;8.20;1.00;;;;;;5079945;28;20191;-80
2021/03/24 02:13:18;;;;;;;56.97;37.37;;;8.10;1.00;;;;;;5025821;28;20208;-86
2021/03/24 02:16:07;;;;;;;52.40;35.80;;;8.10;1.00;;;;;;5074621;28;20632;-87
2021/03/24 02:18:34;;;;;;;50.53;36.37;;;8.10;1.00;;;;;;5060246;28;20164;-82
2021/03/24 02:21:00;;;;;;;54.83;37.20;;;8.10;1.00;;;;;;5071416;28;20287;-81
2021/03/24 02:23:48;;;;;;;55.53;37.23;;;8.10;1.00;;;;;;5091374;28;20176;-79
2021/03/24 02:26:36;;;;;;;57.87;37.10;;;8.00;1.00;;;;;;5074629;28;20195;-83
2021/03/24 02:29:04;;;;;;;61.23;37.47;;;8.10;1.00;;;;;;5095020;28;20245;-84
2021/03/24 02:31:30;;;;;;;57.43;37.87;;;8.00;1.00;;;;;;5089059;28;20188;-85
2021/03/24 02:34:00;;;;;;;54.00;36.30;;;8.10;1.00;;;;;;5075149;28;20180;-80
2021/03/24 02:36:27;;;;;;;56.83;38.67;;;8.00;1.00;;;;;;5056154;28;20172;-81
2021/03/24 02:38:58;;;;;;;54.20;37.10;;;8.10;1.00;;;;;;5073713;28;20183;-82
2021/03/24 02:41:26;;;;;;;55.43;37.37;;;8.20;1.00;;;;;;5073831;28;20168;-86
2021/03/24 02:43:53;;;;;;;53.93;37.37;;;8.20;1.00;;;;;;5056400;28;20172;-83
2021/03/24 02:46:21;;;;;;;61.73;38.43;;;8.30;1.00;;;;;;5056555;28;20235;-86
2021/03/24 02:48:48;;;;;;;53.13;38.80;;;8.10;1.00;;;;;;5074038;28;20212;-85
2021/03/24 02:51:22;;;;;;;57.13;38.47;;;8.10;1.00;;;;;;5073834;28;20652;-84
2021/03/24 02:53:49;;;;;;;52.83;36.77;;;8.00;1.00;;;;;;5056031;28;20655;-84
2021/03/24 02:56:16;;;;;;;54.80;37.63;;;8.20;1.00;;;;;;5055774;28;20629;-84
2021/03/24 02:58:42;;;;;;;56.60;37.73;;;8.20;1.00;;;;;;5055779;28;20171;-84
2021/03/24 03:01:20;;;;;;;55.93;38.60;;;8.20;1.00;;;;;;5073606;28;20184;-86
2021/03/24 03:03:56;;;;;;;54.67;36.77;;;8.10;1.00;;;;;;5073735;28;20183;-86
2021/03/24 03:06:24;;;;;;;57.10;38.10;;;7.90;1.00;;;;;;5055453;28;20176;-78
2021/03/24 03:09:09;;;;;;;55.57;37.63;;;7.80;1.00;;;;;;5055427;28;20298;-82
2021/03/24 03:11:55;;;;;;;59.47;38.93;;;7.70;1.00;;;;;;5073427;28;20538;-81
2021/03/24 03:15:20;;;;;;;53.13;38.67;;;7.80;1.00;;;;;;5055364;28;20175;-84
2021/03/24 03:17:53;;;;;;;59.40;38.80;;;7.90;1.00;;;;;;5014144;28;20548;-84
2021/03/24 03:20:27;;;;;;;52.07;36.77;;;8.00;1.00;;;;;;5075908;28;20176;-86
2021/03/24 03:23:17;;;;;;;57.80;36.60;;;8.00;1.00;;;;;;5077373;28;20259;-85
2021/03/24 03:25:49;;;;;;;58.80;38.50;;;7.80;1.00;;;;;;5059587;28;20188;-86
2021/03/24 03:28:17;;;;;;;58.33;38.37;;;7.70;1.00;;;;;;5059659;28;20215;-82
2021/03/24 03:30:53;;;;;;;59.97;37.10;;;7.60;1.00;;;;;;5077648;28;20204;-79
2021/03/24 03:33:26;;;;;;;65.87;39.13;;;7.60;1.00;;;;;;5059687;28;20179;-83
2021/03/24 03:35:53;;;;;;;56.33;35.83;;;7.50;1.00;;;;;;5059578;28;20168;-85
2021/03/24 03:38:22;;;;;;;57.50;38.10;;;7.50;1.00;;;;;;5059498;28;20180;-83
2021/03/24 03:40:48;;;;;;;59.73;38.80;;;7.50;1.00;;;;;;5059368;28;20194;-85
2021/03/24 03:43:17;;;;;;;58.70;39.37;;;7.60;1.00;;;;;;5077221;28;20180;-82
2021/03/24 03:45:45;;;;;;;59.93;40.17;;;7.70;1.00;;;;;;5059549;28;20192;-83
2021/03/24 03:48:13;;;;;;;61.67;39.60;;;7.90;1.00;;;;;;5077191;28;20675;-84
2021/03/24 03:50:40;;;;;;;59.47;39.97;;;8.00;1.00;;;;;;5059164;28;20580;-87
2021/03/24 03:53:11;;;;;;;56.67;39.37;;;8.00;1.00;;;;;;5076755;28;20184;-86
2021/03/24 03:55:53;;;;;;;57.60;38.93;;;8.10;1.00;;;;;;5059448;28;20165;-87
2021/03/24 03:58:37;;;;;;;58.47;38.80;;;8.00;1.00;;;;;;5077265;28;20168;-86
2021/03/24 04:01:36;;;;;;;56.93;37.73;;;8.00;1.00;;;;;;5076966;28;20168;-86
2021/03/24 04:04:16;;;;;;;57.80;40.20;;;7.90;1.00;;;;;;5006404;28;20191;-86
2021/03/24 04:06:52;;;;;;;58.37;39.30;;;7.90;1.00;;;;;;5077304;28;20221;-84
2021/03/24 04:09:19;;;;;;;64.27;38.90;;;7.80;1.00;;;;;;5077631;28;20668;-83
2021/03/24 04:11:51;;;;;;;57.13;39.77;;;7.60;1.00;;;;;;5077910;28;20214;-85
2021/03/24 04:14:21;;;;;;;55.03;37.57;;;7.60;1.00;;;;;;5059080;28;20176;-84
2021/03/24 04:16:47;;;;;;;57.60;38.10;;;7.60;1.00;;;;;;5058821;28;20184;-86
2021/03/24 04:19:16;;;;;;;59.37;38.17;;;7.80;1.00;;;;;;5059179;28;20176;-85
2021/03/24 04:21:47;;;;;;;63.37;40.90;;;7.80;1.00;;;;;;5076568;28;20180;-86
2021/03/24 04:24:21;;;;;;;57.83;39.83;;;7.80;1.00;;;;;;5077239;28;20195;-85
2021/03/24 04:26:50;;;;;;;59.23;38.30;;;7.60;1.00;;;;;;5076962;28;20191;-86
2021/03/24 04:29:24;;;;;;;60.50;40.60;;;7.60;1.00;;;;;;5058694;28;20262;-85
2021/03/24 04:31:53;;;;;;;61.13;39.90;;;7.70;1.00;;;;;;5058562;28;20622;-85
2021/03/24 04:34:20;;;;;;;57.77;38.83;;;7.80;1.00;;;;;;5076228;28;20191;-83
2021/03/24 04:36:51;;;;;;;61.87;40.63;;;7.60;1.00;;;;;;5058236;28;20169;-82
2021/03/24 04:39:39;;;;;;;60.77;40.30;;;7.40;1.00;;;;;;5058375;28;20173;-86
2021/03/24 04:42:10;;;;;;;60.10;40.97;;;7.30;1.00;;;;;;5058000;28;20585;-83
2021/03/24 04:44:38;;;;;;;59.73;40.93;;;7.30;1.00;;;;;;5076007;28;20286;-84
2021/03/24 04:47:22;;;;;;;63.27;41.37;;;7.10;2.50;;;;;;5058195;28;20183;-86
2021/03/24 04:49:58;;;;;;;59.00;41.00;;;7.20;5.70;;;;;;5076169;28;20211;-83
2021/03/24 04:52:26;;;;;;;66.20;41.07;;;7.10;8.00;;;;;;5075688;28;20172;-86
2021/03/24 04:54:53;;;;;;;60.90;41.67;;;7.00;11.00;;;;;;5057882;28;20168;-84
2021/03/24 04:57:22;;;;;;;62.13;39.77;;;7.00;12.70;;;;;;5058179;28;20157;-86
2021/03/24 04:59:52;;;;;;;65.70;41.33;;;7.00;13.20;;;;;;5076066;28;20168;-85
2021/03/24 05:02:22;;;;;;;60.27;40.00;;;7.00;14.60;;;;;;5075631;28;20172;-86
2021/03/24 05:04:54;;;;;;;63.17;40.90;;;7.00;17.00;;;;;;5075110;28;20169;-84
2021/03/24 05:07:41;;;;;;;62.17;41.00;;;6.90;17.50;;;;;;5075373;28;20179;-81
2021/03/24 05:10:12;;;;;;;62.27;41.07;;;6.90;19.70;;;;;;5075436;28;20392;-85
2021/03/24 05:12:42;;;;;;;61.27;41.17;;;6.90;19.10;;;;;;5075942;28;20196;-82
2021/03/24 05:15:13;;;;;;;60.47;41.40;;;6.90;19.20;;;;;;5075710;28;20179;-84
2021/03/24 05:17:41;;;;;;;66.93;42.73;;;6.90;19.10;;;;;;5057725;28;20255;-83
2021/03/24 05:20:26;;;;;;;64.70;39.97;;;7.00;19.10;;;;;;5075488;28;20168;-86
2021/03/24 05:22:52;;;;;;;67.17;42.43;;;7.00;19.40;;;;;;5057337;28;20192;-84
2021/03/24 05:25:30;;;;;;;62.33;40.77;;;7.00;19.20;;;;;;5075268;28;20647;-85
2021/03/24 05:28:01;;;;;;;61.80;40.87;;;7.00;20.70;;;;;;5057408;28;20290;-87
2021/03/24 05:30:33;;;;;;;67.50;41.27;;;7.10;18.20;;;;;;5057682;28;20183;-82
2021/03/24 05:33:25;;;;;;;63.37;40.70;;;7.10;18.40;;;;;;5075264;28;20168;-84
2021/03/24 05:36:01;;;;;;;62.67;41.27;;;7.10;19.10;;;;;;5075112;28;20172;-80
2021/03/24 05:38:33;;;;;;;62.80;41.07;;;7.10;19.10;;;;;;5057694;28;20682;-83
2021/03/24 05:41:17;;;;;;;61.40;41.17;;;7.10;19.30;;;;;;5057242;28;20177;-85
2021/03/24 05:44:13;;;;;;;58.30;40.67;;;7.20;18.10;;;;;;5056667;28;20168;-80
2021/03/24 05:46:55;;;;;;;62.83;39.67;;;7.30;16.80;;;;;;5056917;28;20175;-85
2021/03/24 05:49:44;;;;;;;58.90;40.43;;;7.30;12.90;;;;;;5074121;28;20247;-86
2021/03/24 05:52:22;;;;;;;63.17;40.90;;;7.40;12.70;;;;;;5056347;28;20625;-84
2021/03/24 05:55:27;;;;;;;59.77;38.93;;;7.40;10.70;;;;;;5056775;28;20180;-84
2021/03/24 05:58:09;;;;;;;61.97;40.23;;;7.40;10.40;;;;;;5074644;28;20172;-86
2021/03/24 06:00:46;;;;;;;56.30;38.43;;;7.40;10.50;;;;;;5056546;28;20261;-86
2021/03/24 06:03:30;;;;;;;61.63;40.80;;;7.30;11.70;;;;;;5074542;28;20202;-86
2021/03/24 06:06:07;;;;;;;57.83;38.57;;;7.40;12.10;;;;;;5074554;28;20642;-81
2021/03/24 06:08:48;;;;;;;57.97;40.27;;;7.40;10.80;;;;;;5074128;28;20212;-82
2021/03/24 06:11:44;;;;;;;62.80;39.53;;;7.50;8.60;;;;;;5056228;28;20219;-86
2021/03/24 06:14:25;;;;;;;59.57;38.60;;;7.60;5.00;;;;;;5074105;28;20218;-83
2021/03/24 06:17:43;;;;;;;67.57;40.30;;;7.50;4.10;;;;;;5055932;28;20184;-85
2021/03/24 06:20:46;;;;;;;72.20;40.50;;;7.50;4.60;;;;;;4999440;28;20272;-85
2021/03/24 06:23:20;;;;;;;62.47;37.93;;;7.60;5.50;;;;;;5056114;28;20172;-84
2021/03/24 06:25:51;;;;;;;59.23;38.60;;;7.60;6.50;;;;;;5055476;28;20214;-86
2021/03/24 06:28:54;;;;;;;58.87;38.37;;;7.60;6.60;;;;;;5056032;28;20203;-82
2021/03/24 06:31:20;;;;;;;55.70;38.20;;;7.70;5.50;;;;;;5073707;28;20179;-79
2021/03/24 06:34:16;;;;;;;58.23;36.73;;;7.70;4.80;;;;;;5073666;28;20334;-83
2021/03/24 06:36:59;;;;;;;53.83;36.03;;;7.80;1.00;;;;;;5055001;28;20172;-83
2021/03/24 06:39:42;;;;;;;56.97;35.40;;;7.80;1.00;;;;;;5073445;28;20642;-85
2021/03/24 06:42:19;;;;;;;58.00;37.70;;;7.90;1.00;;;;;;5073457;28;20174;-85
2021/03/24 06:45:09;;;;;;;56.17;37.83;;;8.00;1.00;;;;;;5055594;28;20196;-84
2021/03/24 06:47:50;;;;;;;60.10;37.27;;;8.10;1.00;;;;;;5055296;28;20226;-83
2021/03/24 06:50:57;;;;;;;56.70;35.93;;;8.10;1.00;;;;;;5055379;28;20172;-85
2021/03/24 06:53:41;;;;;;;58.37;36.47;;;8.20;1.00;;;;;;5055708;28;20210;-80
2021/03/24 06:56:40;;;;;;;57.80;36.53;;;8.30;1.00;;;;;;5075054;28;20249;-85
2021/03/24 06:59:32;;;;;;;57.30;36.83;;;8.40;1.00;;;;;;5074346;28;20164;-87
2021/03/24 07:02:19;;;;;;;56.33;35.20;;;8.50;1.00;;;;;;5056117;28;20173;-82
2021/03/24 07:05:02;;;;;;;61.63;37.03;;;8.60;1.00;;;;;;5055596;28;20168;-88
2021/03/24 07:08:11;;;;;;;59.77;35.63;;;8.70;1.00;;;;;;5073201;28;20168;-86
2021/03/24 07:11:09;;;;;;;61.53;35.97;;;8.90;1.00;;;;;;5055031;28;20666;-83
2021/03/24 07:14:19;;;;;;;57.53;36.67;;;9.00;1.00;;;;;;5017486;28;20317;-84
2021/03/24 07:17:09;;;;;;;53.43;36.23;;;8.90;1.00;;;;;;4955365;28;20186;-83
2021/03/24 07:20:00;;;;;;;59.17;37.33;;;8.80;1.00;;;;;;5050368;28;20567;-82
2021/03/24 07:23:02;;;;;;;62.17;36.37;;;8.90;1.00;;;;;;5074786;28;20172;-89
2021/03/24 07:25:44;;;;;;;56.30;34.97;;;9.00;1.00;;;;;;5074078;28;20176;-87
2021/03/24 07:28:30;;;;;;;58.87;36.03;;;9.10;1.00;;;;;;5055348;28;20204;-82
2021/03/24 07:30:59;;;;;;;58.67;35.53;;;9.20;1.00;;;;;;5072226;28;20172;-86
2021/03/24 07:33:42;;;;;;;62.07;36.83;;;9.20;1.00;;;;;;5072999;28;20540;-87
2021/03/24 07:36:43;;;;;;;66.93;37.30;;;9.40;1.00;;;;;;5057490;28;20176;-81
2021/03/24 07:39:27;;;;;;;61.33;37.93;;;9.40;1.00;;;;;;5080942;28;20522;-83
2021/03/24 07:42:20;;;;;;;63.67;36.63;;;9.50;1.00;;;;;;5057645;28;20654;-84
2021/03/24 07:45:16;;;;;;;62.73;36.73;;;9.50;1.00;;;;;;5075757;28;20245;-81
2021/03/24 07:48:07;;;;;;;57.60;37.73;;;9.60;1.00;;;;;;5046031;28;20274;-81
2021/03/24 07:51:04;;;;;;;60.07;36.27;;;9.70;1.00;;;;;;5080469;28;20164;-78
2021/03/24 07:54:10;;;;;;;57.43;37.33;;;9.80;1.00;;;;;;5045328;28;20185;-83
2021/03/24 07:56:44;;;;;;;64.93;36.93;;;9.90;1.00;;;;;;5041074;28;20211;-86
2021/03/24 07:59:22;;;;;;;62.27;36.13;;;10.00;1.00;;;;;;5073346;28;20172;-88
2021/03/24 08:02:19;;;;;;;54.77;35.77;;;10.10;1.00;;;;;;5073394;28;20200;-88
2021/03/24 08:05:20;;;;;;;66.83;38.63;;;10.20;1.00;;;;;;5051826;28;20632;-88
2021/03/24 08:08:00;;;;;;;52.43;36.40;;;10.30;1.00;;;;;;5059829;28;20203;-88
2021/03/24 08:10:34;;;;;;;59.60;35.93;;;10.20;1.00;;;;;;5081443;28;20194;-84
2021/03/24 08:13:35;;;;;;;55.17;34.67;;;10.40;1.00;;;;;;5076782;28;20184;-88
2021/03/24 08:16:26;;;;;;;53.77;35.60;;;10.30;1.00;;;;;;5024290;28;20187;-86
2021/03/24 08:19:22;;;;;;;56.90;35.60;;;10.60;1.00;;;;;;5052520;28;20185;-89
2021/03/24 08:22:07;;;;;;;59.17;35.40;;;10.70;1.00;;;;;;5076579;28;20173;-81
2021/03/24 08:24:53;;;;;;;58.03;37.33;;;10.80;1.00;;;;;;5059368;28;20208;-88
2021/03/24 08:27:26;;;;;;;60.97;35.83;;;10.90;1.00;;;;;;5076842;28;20215;-88
2021/03/24 08:30:09;;;;;;;58.83;36.23;;;11.00;1.00;;;;;;5077743;28;20235;-85
2021/03/24 08:32:38;;;;;;;54.10;35.10;;;11.10;1.00;;;;;;5079267;28;20217;-87
2021/03/24 08:35:46;;;;;;;57.50;35.33;;;11.20;99.90;;;;;;5079332;28;20188;-80
2021/03/24 08:38:52;;;;;;;51.70;33.57;;;11.30;99.90;;;;;;5067046;28;20171;-88
2021/03/24 08:41:54;;;;;;;49.33;32.67;;;11.50;99.90;;;;;;5078953;28;20183;-90
2021/03/24 08:44:45;;;;;;;57.67;35.17;;;11.40;99.90;;;;;;5077843;28;20214;-83
2021/03/24 08:47:14;;;;;;;54.07;33.97;;;11.40;99.90;;;;;;5083031;28;20208;-91
2021/03/24 08:49:46;;;;;;;57.37;33.40;;;11.50;99.90;;;;;;5096148;28;20216;-87
2021/03/24 08:52:44;;;;;;;56.50;34.00;;;11.90;99.90;;;;;;5075028;28;20202;-81
2021/03/24 08:55:48;;;;;;;61.47;35.37;;;11.90;99.90;;;;;;5077998;28;20628;-91
2021/03/24 08:58:16;;;;;;;51.47;32.27;;;12.10;43.90;;;;;;5059137;28;20168;-79
2021/03/24 09:01:06;;;;;;;52.63;34.13;;;12.30;1.00;;;;;;5075820;28;20647;-86
2021/03/24 09:03:56;;;;;;;54.57;32.50;;;12.40;99.90;;;;;;5076358;28;20255;-80
2021/03/24 09:06:49;;;;;;;52.70;32.43;;;12.40;1.00;;;;;;5076770;28;20156;-82
2021/03/24 09:09:34;;;;;;;50.93;31.10;;;12.40;1.00;;;;;;5067119;28;20683;-83
2021/03/24 09:12:20;;;;;;;49.43;31.73;;;12.30;99.90;;;;;;5074325;28;20165;-83
2021/03/24 09:14:59;;;;;;;43.87;29.00;;;12.20;99.90;;;;;;5075340;28;20176;-84
2021/03/24 09:17:41;;;;;;;47.03;29.57;;;12.00;1.00;;;;;;5073514;28;20171;-89
2021/03/24 09:20:44;;;;;;;47.63;31.47;;;12.00;1.00;;;;;;5074771;28;20168;-81
2021/03/24 09:23:47;;;;;;;45.97;29.53;;;12.10;99.90;;;;;;5074196;28;20238;-87
2021/03/24 09:26:28;;;;;;;45.80;28.60;;;12.20;99.90;;;;;;5056260;28;20215;-83
2021/03/24 09:29:04;;;;;;;47.40;29.87;;;12.20;99.90;;;;;;5066262;28;20199;-89
2021/03/24 09:32:08;;;;;;;45.07;28.53;;;12.30;1.00;;;;;;5076427;28;20178;-83
2021/03/24 09:34:52;;;;;;;42.97;29.07;;;12.50;1.00;;;;;;5078772;28;20180;-87
2021/03/24 09:37:35;;;;;;;42.93;26.83;;;12.50;99.90;;;;;;5074096;28;20680;-85
2021/03/24 09:40:07;;;;;;;41.70;27.57;;;12.70;99.90;;;;;;5073348;28;20615;-84
2021/03/24 09:42:44;;;;;;;46.67;28.97;;;12.90;99.90;;;;;;5073163;28;20160;-87
2021/03/24 09:45:13;;;;;;;45.63;27.20;;;13.10;99.90;;;;;;5075487;28;20184;-86
2021/03/24 09:47:52;;;;;;;43.67;29.07;;;13.30;99.90;;;;;;5074298;28;20194;-84
2021/03/24 09:50:33;;;;;;;48.07;28.67;;;13.40;1.00;;;;;;5055498;28;20237;-80
2021/03/24 09:53:04;;;;;;;42.43;28.57;;;13.60;1.00;;;;;;5073538;28;20251;-84
2021/03/24 09:55:41;;;;;;;45.77;29.73;;;13.90;99.90;;;;;;5073145;28;20169;-85
2021/03/24 09:58:22;;;;;;;43.00;26.67;;;14.00;1.00;;;;;;5072966;28;20170;-84
2021/03/24 10:00:54;;;;;;;42.50;26.27;;;13.80;99.90;;;;;;5073339;28;20176;-85
2021/03/24 10:03:20;;;;;;;39.20;25.83;;;13.90;1.00;;;;;;5074677;28;20191;-85
2021/03/24 10:05:58;;;;;;;43.30;26.07;;;13.80;1.00;;;;;;5075835;28;20508;-86
2021/03/24 10:08:33;;;;;;;43.63;26.90;;;13.90;1.00;;;;;;5073273;28;20572;-82
2021/03/24 10:11:06;;;;;;;39.47;27.27;;;13.90;1.00;;;;;;5072165;28;20168;-82
2021/03/24 10:13:44;;;;;;;42.50;26.20;;;14.10;1.00;;;;;;5054742;28;20243;-81
2021/03/24 10:16:09;;;;;;;41.33;28.27;;;14.30;1.00;;;;;;5073028;28;20168;-85
2021/03/24 10:18:50;;;;;;;43.37;27.90;;;14.50;1.00;;;;;;5073574;28;20274;-77
2021/03/24 10:21:18;;;;;;;40.83;26.17;;;14.30;1.00;;;;;;5054742;28;20627;-81
2021/03/24 10:23:52;;;;;;;36.30;25.37;;;14.20;99.90;;;;;;5056142;28;20198;-85
2021/03/24 10:26:20;;;;;;;42.60;27.57;;;14.10;99.90;;;;;;5072627;28;20188;-84
2021/03/24 10:28:57;;;;;;;38.23;23.90;;;14.30;1.00;;;;;;5071901;28;20210;-86
2021/03/24 10:31:36;;;;;;;43.60;26.27;;;14.40;1.00;;;;;;5071343;28;20628;-79
2021/03/24 10:34:13;;;;;;;41.77;26.63;;;14.50;79.30;;;;;;5073083;28;20689;-84
2021/03/24 10:37:14;;;;;;;35.30;23.47;;;14.40;99.90;;;;;;5072888;28;20222;-82
2021/03/24 10:40:04;;;;;;;35.33;22.13;;;14.40;99.90;;;;;;5072850;28;20257;-79
2021/03/24 10:42:43;;;;;;;35.20;24.00;;;14.20;99.90;;;;;;5072880;28;20175;-81
2021/03/24 10:45:21;;;;;;;35.63;24.30;;;14.10;13.10;;;;;;5079759;28;20648;-80
2021/03/24 10:48:20;;;;;;;33.83;21.93;;;14.20;1.00;;;;;;5072547;28;20243;-86
2021/03/24 10:51:05;;;;;;;36.00;24.23;;;14.10;99.90;;;;;;5072917;28;20187;-81
2021/03/24 10:53:34;;;;;;;33.80;22.97;;;14.10;99.90;;;;;;5081998;28;20184;-79
2021/03/24 10:56:27;;;;;;;33.37;24.00;;;14.20;1.00;;;;;;5072882;28;20200;-82
2021/03/24 10:59:11;;;;;;;38.90;25.20;;;14.20;1.00;;;;;;5072615;28;20164;-82
2021/03/24 11:01:54;;;;;;;37.63;24.73;;;14.40;1.00;;;;;;5054326;28;20541;-84
2021/03/24 11:04:42;;;;;;;36.70;22.87;;;14.50;1.00;;;;;;5072486;28;20168;-86
2021/03/24 11:07:14;;;;;;;36.73;23.63;;;14.60;96.40;;;;;;5073045;28;20155;-80
2021/03/24 11:09:59;;;;;;;37.97;25.67;;;14.70;1.00;;;;;;5072941;28;20616;-81
2021/03/24 11:12:39;;;;;;;37.40;23.70;;;14.90;1.00;;;;;;5072418;28;20168;-84
2021/03/24 11:15:13;;;;;;;32.00;23.30;;;14.80;1.00;;;;;;5072117;28;20170;-87
2021/03/24 11:17:41;;;;;;;34.20;23.93;;;14.80;1.00;;;;;;5060448;28;20530;-82
2021/03/24 11:20:13;;;;;;;35.87;24.63;;;14.80;1.00;;;;;;5083351;28;20192;-83
2021/03/24 11:22:55;;;;;;;35.30;24.00;;;14.80;1.00;;;;;;5072402;28;20233;-81
2021/03/24 11:26:02;;;;;;;35.53;24.47;;;14.90;1.00;;;;;;5072136;28;20279;-81
2021/03/24 11:28:34;;;;;;;35.90;23.57;;;15.00;99.90;;;;;;5083532;28;20203;-82
2021/03/24 11:31:11;;;;;;;35.37;22.50;;;14.90;1.00;;;;;;5085490;28;20179;-78
2021/03/24 11:33:39;;;;;;;34.53;21.73;;;15.00;1.00;;;;;;5080305;28;20229;-83
2021/03/24 11:36:14;;;;;;;28.97;21.47;;;15.10;99.90;;;;;;5079002;28;20180;-82
2021/03/24 11:38:47;;;;;;;28.70;18.93;;;15.20;1.00;;;;;;5072527;28;20179;-85
2021/03/24 11:41:22;;;;;;;32.17;19.80;;;15.10;1.00;;;;;;5079989;28;20185;-83
2021/03/24 11:43:58;;;;;;;29.73;19.77;;;15.10;1.00;;;;;;5064699;28;20531;-82
2021/03/24 11:46:42;;;;;;;28.27;18.90;;;15.20;1.00;;;;;;5076745;28;20172;-83
2021/03/24 11:49:36;;;;;;;30.63;18.50;;;15.30;1.00;;;;;;5076037;28;20205;-85
2021/03/24 11:52:29;;;;;;;30.23;17.80;;;15.30;1.00;;;;;;5076724;28;20169;-83
2021/03/24 11:55:05;;;;;;;27.70;18.23;;;15.40;1.00;;;;;;5077468;28;20174;-84
2021/03/24 11:57:48;;;;;;;31.23;18.03;;;15.50;1.00;;;;;;5078913;28;20678;-80
2021/03/24 12:00:22;;;;;;;28.73;17.03;;;15.50;99.90;;;;;;5073897;28;20196;-79
2021/03/24 12:03:09;;;;;;;24.27;15.73;;;15.70;99.90;;;;;;5084826;28;20190;-79
2021/03/24 12:05:41;;;;;;;27.20;16.43;;;15.70;48.90;;;;;;5064453;28;20231;-86
2021/03/24 12:08:12;;;;;;;27.33;17.90;;;15.70;99.90;;;;;;5078143;28;20191;-82
2021/03/24 12:10:41;;;;;;;23.37;17.10;;;15.80;99.90;;;;;;5080014;28;20184;-83
2021/03/24 12:13:14;;;;;;;28.13;18.93;;;15.90;99.90;;;;;;5082265;28;20168;-89
2021/03/24 12:15:42;;;;;;;27.90;18.37;;;15.80;99.90;;;;;;5086929;28;20206;-82
2021/03/24 12:18:18;;;;;;;27.17;18.23;;;15.90;99.90;;;;;;5089715;28;20164;-87
2021/03/24 12:20:59;;;;;;;29.87;18.03;;;15.90;99.90;;;;;;5081773;28;20174;-80
2021/03/24 12:23:31;;;;;;;28.53;16.97;;;15.90;40.80;;;;;;5077052;28;20225;-85
2021/03/24 12:25:59;;;;;;;24.20;14.97;;;15.90;1.00;;;;;;5075485;28;20180;-82
2021/03/24 12:28:42;;;;;;;24.03;15.27;;;15.70;1.00;;;;;;5087086;28;20288;-82
2021/03/24 12:31:10;;;;;;;26.07;17.20;;;15.70;1.00;;;;;;5076032;28;20204;-79
2021/03/24 12:33:41;;;;;;;22.87;15.60;;;15.70;1.00;;;;;;5083450;28;20170;-81
2021/03/24 12:36:19;;;;;;;23.67;16.27;;;15.80;1.00;;;;;;5094144;28;20191;-84
2021/03/24 12:39:02;;;;;;;22.87;14.33;;;16.10;1.00;;;;;;5081980;28;20277;-81
2021/03/24 12:41:45;;;;;;;23.93;14.57;;;16.20;1.00;;;;;;5074606;28;20261;-82
2021/03/24 12:44:20;;;;;;;22.07;13.47;;;16.10;1.00;;;;;;5058808;28;20305;-84
2021/03/24 12:46:56;;;;;;;23.40;14.67;;;16.00;1.00;;;;;;5074115;28;20204;-81
2021/03/24 12:49:37;;;;;;;23.77;13.00;;;16.00;1.00;;;;;;5054783;28;20211;-78
2021/03/24 12:52:27;;;;;;;21.67;12.70;;;16.10;1.00;;;;;;5055147;28;20218;-81
2021/03/24 12:54:52;;;;;;;21.57;14.37;;;16.20;1.00;;;;;;5073340;28;20199;-79
2021/03/24 12:57:18;;;;;;;21.00;15.07;;;16.20;1.00;;;;;;5055358;28;20532;-82
2021/03/24 13:00:12;;;;;;;20.10;14.33;;;16.20;1.00;;;;;;5055393;28;20646;-79
2021/03/24 13:02:58;;;;;;;19.37;12.33;;;16.20;1.00;;;;;;5072966;28;20204;-82
2021/03/24 13:05:39;;;;;;;18.00;12.57;;;16.10;1.00;;;;;;5073858;28;20203;-81
2021/03/24 13:08:36;;;;;;;21.20;13.60;;;16.10;1.00;;;;;;5074238;28;20196;-81
2021/03/24 13:11:29;;;;;;;22.50;13.97;;;16.30;1.00;;;;;;5055973;28;20686;-81
2021/03/24 13:14:16;;;;;;;17.87;13.00;;;16.40;1.00;;;;;;5055539;28;20178;-79
2021/03/24 13:16:51;;;;;;;20.87;12.67;;;16.40;1.00;;;;;;5074360;28;20626;-80
2021/03/24 13:19:37;;;;;;;19.33;13.30;;;16.40;1.00;;;;;;5056665;28;20199;-83
2021/03/24 13:22:02;;;;;;;20.07;13.63;;;16.50;1.00;;;;;;5093505;28;20580;-79
2021/03/24 13:24:52;;;;;;;20.93;13.97;;;16.70;1.00;;;;;;5093281;28;20172;-81
2021/03/24 13:27:39;;;;;;;22.97;14.07;;;16.70;1.00;;;;;;5093579;28;20183;-81
2021/03/24 13:30:19;;;;;;;21.57;14.47;;;16.90;1.00;;;;;;5093194;28;20222;-79
2021/03/24 13:32:55;;;;;;;25.10;16.10;;;16.90;1.00;;;;;;5093004;28;20166;-80
2021/03/24 13:35:23;;;;;;;24.60;16.23;;;16.80;1.00;;;;;;5092778;28;20171;-79
2021/03/24 13:37:49;;;;;;;24.17;16.10;;;16.90;1.00;;;;;;5075040;28;20263;-81